Time;durP1;ratioP1;P1;durP2;ratioP2;P2;SDS_P1;SDS_P2;PMS_P1;PMS_P2;Temp;Humidity;BMP_temperature;BMP_pressure;BME280_temperature;BME280_humidity;BME280_pressure;Samples;Min_cycle;Max_cycle;Signal;HPM_P1;HPM_P2
2022/01/14 00:01:15;;;;;;;67.10;30.13;;;0.30;1.00;;;;;;5042451;28;20275;-59
2022/01/14 00:03:42;;;;;;;67.10;31.33;;;0.40;1.00;;;;;;5064868;28;20217;-57
2022/01/14 00:06:10;;;;;;;68.67;31.27;;;0.30;1.00;;;;;;5071645;28;20190;-57
2022/01/14 00:08:37;;;;;;;69.20;32.37;;;0.30;1.00;;;;;;5069722;28;20424;-57
2022/01/14 00:11:14;;;;;;;68.10;32.57;;;0.30;1.00;;;;;;5054366;28;20275;-58
2022/01/14 00:14:07;;;;;;;80.83;34.37;;;0.20;1.00;;;;;;5066006;28;20193;-59
2022/01/14 00:16:34;;;;;;;72.33;33.03;;;0.20;1.00;;;;;;5071796;28;20247;-59
2022/01/14 00:19:04;;;;;;;78.77;33.63;;;0.00;1.00;;;;;;5055531;28;20651;-58
2022/01/14 00:21:34;;;;;;;81.43;34.63;;;0.20;1.00;;;;;;5068165;28;20249;-58
2022/01/14 00:24:13;;;;;;;77.17;33.37;;;0.20;43.70;;;;;;5069608;28;20202;-58
2022/01/14 00:32:26;;;;;;;74.43;34.13;;;0.30;99.90;;;;;;5072835;28;20209;-59
2022/01/14 00:34:56;;;;;;;82.93;36.17;;;0.20;99.90;;;;;;5055226;28;20261;-59
2022/01/14 00:37:23;;;;;;;81.87;34.77;;;0.20;99.90;;;;;;5069141;28;20233;-58
2022/01/14 00:39:49;;;;;;;77.27;33.27;;;0.10;99.90;;;;;;5064039;28;20205;-58
2022/01/14 00:42:17;;;;;;;65.40;31.33;;;0.10;99.90;;;;;;5062023;28;22450;-58
2022/01/14 00:44:45;;;;;;;71.17;32.90;;;0.00;98.00;;;;;;5080538;28;20230;-59
2022/01/14 00:47:12;;;;;;;75.97;33.00;;;0.00;99.90;;;;;;5068857;28;20252;-59
2022/01/14 00:49:44;;;;;;;79.07;36.03;;;0.10;99.90;;;;;;5069704;28;20205;-59
2022/01/14 00:52:13;;;;;;;72.47;36.00;;;0.10;1.00;;;;;;5069689;28;20194;-59
2022/01/14 00:54:40;;;;;;;68.43;33.27;;;0.10;1.00;;;;;;5064619;28;20202;-59
2022/01/14 00:59:36;;;;;;;71.83;33.37;;;0.20;1.00;;;;;;5087475;28;20220;-59
2022/01/14 01:02:07;;;;;;;74.57;33.27;;;0.20;1.00;;;;;;5052820;28;20665;-59
2022/01/14 01:04:38;;;;;;;71.80;31.80;;;0.10;1.00;;;;;;5068018;28;20220;-59
2022/01/14 01:07:07;;;;;;;68.37;31.90;;;0.10;1.00;;;;;;5087210;28;20195;-59
2022/01/14 01:09:37;;;;;;;67.97;31.13;;;0.00;1.00;;;;;;5061365;28;20237;-59
2022/01/14 01:12:13;;;;;;;62.23;30.67;;;0.00;1.00;;;;;;5085776;28;20187;-58
2022/01/14 01:14:52;;;;;;;73.87;33.23;;;0.20;99.90;;;;;;5084288;28;20657;-59
2022/01/14 01:17:21;;;;;;;77.97;34.03;;;0.30;1.00;;;;;;5061331;28;20222;-58
2022/01/14 01:19:52;;;;;;;84.93;34.80;;;0.40;92.50;;;;;;5064034;28;20284;-58
2022/01/14 01:22:19;;;;;;;82.10;35.93;;;0.50;99.90;;;;;;5052397;28;20226;-58
2022/01/14 01:24:58;;;;;;;81.60;35.87;;;0.60;1.00;;;;;;5069920;28;21206;-59
2022/01/14 01:27:29;;;;;;;91.30;38.00;;;0.70;1.00;;;;;;5084179;28;20261;-59
2022/01/14 01:30:12;;;;;;;97.23;39.93;;;0.80;51.60;;;;;;5087552;28;20190;-58
2022/01/14 01:32:39;;;;;;;103.77;43.53;;;1.00;99.90;;;;;;5084812;28;21741;-59
2022/01/14 01:35:07;;;;;;;97.33;40.97;;;1.10;1.00;;;;;;5086733;28;20190;-59
2022/01/14 01:37:36;;;;;;;96.17;39.93;;;1.20;99.90;;;;;;5086016;28;20220;-58
2022/01/14 01:40:04;;;;;;;105.63;41.00;;;1.20;99.90;;;;;;5067814;28;20190;-58
2022/01/14 01:42:34;;;;;;;109.70;40.93;;;1.20;1.00;;;;;;5069274;28;20201;-59
2022/01/14 01:45:08;;;;;;;108.47;40.27;;;1.20;1.00;;;;;;5069565;28;20731;-59
2022/01/14 01:47:37;;;;;;;108.10;40.97;;;1.20;1.00;;;;;;5086483;28;20261;-58
2022/01/14 01:50:18;;;;;;;97.80;41.13;;;1.30;1.00;;;;;;5067829;28;20315;-58
2022/01/14 01:52:47;;;;;;;101.77;41.50;;;0.90;85.70;;;;;;5068291;28;20199;-58
2022/01/14 01:55:15;;;;;;;105.20;41.60;;;1.40;80.00;;;;;;5067676;28;20205;-58
2022/01/14 01:57:43;;;;;;;103.33;38.93;;;1.50;48.30;;;;;;5053080;28;20297;-58
2022/01/14 02:00:13;;;;;;;106.27;41.17;;;1.60;1.00;;;;;;5052389;28;20212;-58
2022/01/14 02:02:47;;;;;;;106.93;41.13;;;1.60;1.00;;;;;;5086372;28;20779;-58
2022/01/14 02:05:16;;;;;;;121.73;42.97;;;1.60;1.00;;;;;;5061438;28;20308;-58
2022/01/14 02:07:44;;;;;;;116.20;39.67;;;1.70;99.90;;;;;;5082466;28;20186;-59
2022/01/14 02:10:12;;;;;;;123.40;44.80;;;1.70;99.90;;;;;;5068759;28;20195;-58
2022/01/14 02:12:49;;;;;;;107.70;42.23;;;1.70;11.90;;;;;;5052213;28;20213;-59
2022/01/14 02:18:29;;;;;;;105.80;42.70;;;1.80;1.00;;;;;;5056914;28;20256;-58
2022/01/14 02:23:50;;;;;;;115.53;43.00;;;1.80;99.90;;;;;;5086277;28;20232;-59
2022/01/14 02:26:19;;;;;;;109.73;42.37;;;1.80;99.90;;;;;;5083790;28;20186;-59
2022/01/14 02:28:48;;;;;;;116.37;45.57;;;1.80;99.90;;;;;;5068461;28;20198;-58
2022/01/14 02:31:17;;;;;;;113.73;42.87;;;1.80;99.90;;;;;;5070605;28;20285;-59
2022/01/14 02:33:45;;;;;;;106.20;43.00;;;1.80;4.70;;;;;;5061265;28;20313;-59
2022/01/14 02:36:14;;;;;;;107.07;42.60;;;1.80;1.00;;;;;;5050806;28;20229;-59
2022/01/14 02:38:41;;;;;;;115.07;42.60;;;1.90;1.00;;;;;;5069217;28;20733;-58
2022/01/14 02:41:11;;;;;;;104.83;39.67;;;1.80;1.00;;;;;;5068214;28;20246;-58
2022/01/14 02:43:40;;;;;;;114.73;43.30;;;1.90;1.00;;;;;;5052875;28;20855;-59
2022/01/14 02:46:08;;;;;;;116.53;42.20;;;1.90;1.00;;;;;;5071315;28;20190;-59
2022/01/14 02:48:35;;;;;;;104.27;40.17;;;1.90;99.90;;;;;;5071270;28;20206;-60
2022/01/14 02:51:10;;;;;;;122.57;42.67;;;1.90;99.90;;;;;;5070089;28;20708;-59
2022/01/14 02:56:15;;;;;;;113.80;49.73;;;1.90;99.90;;;;;;5085912;28;20305;-58
2022/01/14 02:58:43;;;;;;;121.87;44.60;;;1.90;1.00;;;;;;5076937;28;20263;-58
2022/01/14 03:01:14;;;;;;;123.03;44.97;;;1.90;1.00;;;;;;5084968;28;20191;-58
2022/01/14 03:03:44;;;;;;;134.47;44.73;;;1.90;1.00;;;;;;5051585;28;20230;-59
2022/01/14 03:06:12;;;;;;;130.53;44.73;;;1.90;1.00;;;;;;5066634;28;20305;-58
2022/01/14 03:08:43;;;;;;;136.47;45.87;;;1.90;1.00;;;;;;5068317;28;20289;-58
2022/01/14 03:11:16;;;;;;;137.00;47.17;;;1.90;1.00;;;;;;5066807;28;20236;-58
2022/01/14 03:13:43;;;;;;;140.67;45.37;;;2.00;1.00;;;;;;5083050;28;20549;-58
2022/01/14 03:16:17;;;;;;;134.80;44.27;;;2.00;1.00;;;;;;5084527;28;20271;-58
2022/01/14 03:18:47;;;;;;;130.43;45.43;;;1.90;1.00;;;;;;5068023;28;20308;-57
2022/01/14 03:21:25;;;;;;;135.20;46.17;;;1.90;1.00;;;;;;5065035;28;20226;-58
2022/01/14 03:24:03;;;;;;;145.57;45.30;;;2.00;99.90;;;;;;5067230;28;20218;-58
2022/01/14 03:26:30;;;;;;;138.43;45.57;;;2.00;99.90;;;;;;5068189;28;21090;-58
2022/01/14 03:28:57;;;;;;;169.93;50.03;;;2.00;99.90;;;;;;5086499;28;20309;-58
2022/01/14 03:31:24;;;;;;;180.63;49.50;;;2.00;99.90;;;;;;5086620;28;20233;-58
2022/01/14 03:33:51;;;;;;;183.47;52.17;;;1.90;99.90;;;;;;5061838;28;20230;-57
2022/01/14 03:36:20;;;;;;;184.73;49.37;;;2.00;99.90;;;;;;5066096;28;20692;-59
2022/01/14 03:38:47;;;;;;;174.30;49.97;;;2.00;99.90;;;;;;5063670;28;20195;-59
2022/01/14 03:41:14;;;;;;;171.83;49.67;;;1.90;10.00;;;;;;5064771;28;20202;-58
2022/01/14 03:43:42;;;;;;;166.07;45.53;;;1.90;1.00;;;;;;5062428;28;20246;-59
2022/01/14 03:46:12;;;;;;;167.37;48.03;;;1.90;1.00;;;;;;5057155;28;20186;-58
2022/01/14 03:48:39;;;;;;;166.20;46.53;;;1.90;1.00;;;;;;5064427;28;20240;-58
2022/01/14 03:51:06;;;;;;;172.53;49.07;;;1.90;1.00;;;;;;5067358;28;20727;-59
2022/01/14 03:53:33;;;;;;;171.30;47.23;;;1.90;1.00;;;;;;5047755;28;20290;-58
2022/01/14 03:56:00;;;;;;;186.30;52.17;;;1.90;1.00;;;;;;5059312;28;20206;-59
2022/01/14 03:58:38;;;;;;;167.83;48.10;;;1.90;1.00;;;;;;5057649;28;20269;-58
2022/01/14 04:01:07;;;;;;;198.17;51.83;;;2.00;1.00;;;;;;5064928;28;20222;-57
2022/01/14 04:03:34;;;;;;;213.50;53.13;;;2.00;1.00;;;;;;5046011;28;20219;-58
2022/01/14 04:06:02;;;;;;;224.27;57.80;;;2.00;1.00;;;;;;5056628;28;20198;-58
2022/01/14 04:08:29;;;;;;;223.67;57.93;;;2.00;1.00;;;;;;5063020;28;20229;-58
2022/01/14 04:11:00;;;;;;;199.50;52.83;;;2.00;1.00;;;;;;5064943;28;20198;-58
2022/01/14 04:13:47;;;;;;;179.73;47.60;;;2.00;1.00;;;;;;5047515;28;20342;-59
2022/01/14 04:16:15;;;;;;;184.53;48.60;;;2.00;1.00;;;;;;5058560;28;20662;-59
2022/01/14 04:18:46;;;;;;;150.37;46.47;;;2.00;1.00;;;;;;5066420;28;20278;-58
2022/01/14 04:21:12;;;;;;;169.87;48.07;;;2.00;1.00;;;;;;5046550;28;20698;-58
2022/01/14 04:23:42;;;;;;;154.33;44.43;;;2.00;99.90;;;;;;5044834;28;20872;-58
2022/01/14 04:26:10;;;;;;;127.03;42.30;;;2.10;99.90;;;;;;5082252;28;20238;-58
2022/01/14 04:28:40;;;;;;;94.07;34.93;;;2.10;99.90;;;;;;5063873;28;20555;-58
2022/01/14 04:31:09;;;;;;;92.53;36.70;;;2.10;99.90;;;;;;5055199;28;20260;-58
2022/01/14 04:33:37;;;;;;;85.77;33.17;;;2.10;99.90;;;;;;5064219;28;20242;-59
2022/01/14 04:36:05;;;;;;;81.97;32.93;;;2.00;99.90;;;;;;5061774;28;20673;-58
2022/01/14 04:38:33;;;;;;;69.17;30.33;;;2.10;99.90;;;;;;5063390;28;20264;-57
2022/01/14 04:41:00;;;;;;;61.70;27.97;;;2.00;99.90;;;;;;5045356;28;20279;-59
2022/01/14 04:43:30;;;;;;;68.30;27.50;;;2.00;99.90;;;;;;5057921;28;20187;-59
2022/01/14 04:48:32;;;;;;;68.43;28.63;;;2.00;8.30;;;;;;5066278;28;20721;-57
2022/01/14 04:51:02;;;;;;;62.10;27.63;;;2.00;1.00;;;;;;5066652;28;20222;-59
2022/01/14 04:53:34;;;;;;;62.47;28.37;;;2.00;1.00;;;;;;5061867;28;20195;-57
2022/01/14 04:56:02;;;;;;;63.87;28.23;;;2.00;1.00;;;;;;5068372;28;20203;-58
2022/01/14 04:58:31;;;;;;;62.43;28.77;;;2.10;1.00;;;;;;5067997;28;20536;-58
2022/01/14 05:01:01;;;;;;;62.83;29.67;;;2.10;1.00;;;;;;5059162;28;20558;-58
2022/01/14 05:03:30;;;;;;;65.77;28.67;;;2.10;1.00;;;;;;5061431;28;20203;-58
2022/01/14 05:06:01;;;;;;;78.43;33.13;;;2.10;1.00;;;;;;5065317;28;20290;-58
2022/01/14 05:08:36;;;;;;;67.50;29.37;;;2.10;1.00;;;;;;5069661;28;20217;-58
2022/01/14 05:11:22;;;;;;;69.60;31.03;;;2.10;1.00;;;;;;5065805;28;20179;-58
2022/01/14 05:13:49;;;;;;;67.30;29.50;;;2.20;1.00;;;;;;5068106;28;20183;-59
2022/01/14 05:16:16;;;;;;;63.17;28.57;;;2.10;1.00;;;;;;5066553;28;20242;-58
2022/01/14 05:18:44;;;;;;;59.77;26.83;;;2.10;1.00;;;;;;5058316;28;20244;-58
2022/01/14 05:21:13;;;;;;;64.13;25.33;;;2.10;1.00;;;;;;5064529;28;20223;-58
2022/01/14 05:23:42;;;;;;;55.30;25.80;;;2.10;1.00;;;;;;5065534;28;20195;-59
2022/01/14 05:26:11;;;;;;;59.80;28.77;;;2.10;1.00;;;;;;5068073;28;20695;-58
2022/01/14 05:28:41;;;;;;;56.30;26.80;;;2.10;1.00;;;;;;5044899;28;20195;-58
2022/01/14 05:31:08;;;;;;;57.20;26.80;;;2.00;1.00;;;;;;5066277;28;20198;-59
2022/01/14 05:33:35;;;;;;;62.47;29.17;;;2.00;1.00;;;;;;5064717;28;20316;-58
2022/01/14 05:36:02;;;;;;;61.73;25.50;;;2.00;1.00;;;;;;5064562;28;20758;-58
2022/01/14 05:38:29;;;;;;;71.80;25.70;;;2.00;1.00;;;;;;5068798;28;20229;-58
2022/01/14 05:40:56;;;;;;;62.40;25.47;;;2.00;1.00;;;;;;5050741;28;20272;-58
2022/01/14 05:43:23;;;;;;;54.33;25.03;;;1.90;1.00;;;;;;5067438;28;20235;-58
2022/01/14 05:45:50;;;;;;;72.03;28.23;;;1.90;1.00;;;;;;5064702;28;20215;-58
2022/01/14 05:48:20;;;;;;;75.83;27.87;;;1.90;1.00;;;;;;5066373;28;20227;-58
2022/01/14 05:50:47;;;;;;;64.30;26.60;;;1.90;1.00;;;;;;5055343;28;20199;-58
2022/01/14 05:53:14;;;;;;;70.37;28.70;;;1.90;82.80;;;;;;5049365;28;20211;-58
2022/01/14 05:55:40;;;;;;;76.03;28.20;;;1.90;99.90;;;;;;5067811;28;20539;-58
2022/01/14 05:58:07;;;;;;;75.33;28.17;;;1.80;53.70;;;;;;5061399;28;20226;-58
2022/01/14 06:00:34;;;;;;;90.13;28.27;;;1.70;99.90;;;;;;5066217;28;20287;-58
2022/01/14 06:03:01;;;;;;;84.23;27.83;;;1.70;1.00;;;;;;5048964;28;20199;-58
2022/01/14 06:05:35;;;;;;;76.00;29.33;;;1.70;1.00;;;;;;5061948;28;20293;-58
2022/01/14 06:08:02;;;;;;;73.47;26.20;;;1.80;1.00;;;;;;5066356;28;20603;-58
2022/01/14 06:10:29;;;;;;;70.70;27.67;;;1.80;1.00;;;;;;5067555;28;20275;-59
2022/01/14 06:12:56;;;;;;;79.00;26.80;;;1.80;1.00;;;;;;5064710;28;21095;-58
2022/01/14 06:15:23;;;;;;;93.40;30.40;;;1.80;99.90;;;;;;5064739;28;20222;-58
2022/01/14 06:17:52;;;;;;;85.50;29.23;;;1.80;99.90;;;;;;5066204;28;20233;-58
2022/01/14 06:20:19;;;;;;;78.03;28.83;;;1.80;99.90;;;;;;5062967;28;20199;-58
2022/01/14 06:22:46;;;;;;;115.87;32.10;;;1.80;99.90;;;;;;5048955;28;20206;-57
2022/01/14 06:25:13;;;;;;;107.17;33.47;;;1.80;99.90;;;;;;5065987;28;20250;-57
2022/01/14 06:27:40;;;;;;;90.23;31.17;;;1.80;1.00;;;;;;5068750;28;20290;-58
2022/01/14 06:30:07;;;;;;;94.57;30.83;;;1.80;1.00;;;;;;5041911;28;20187;-58
2022/01/14 06:32:41;;;;;;;104.97;33.23;;;1.90;1.00;;;;;;5059509;28;20671;-58
2022/01/14 06:35:14;;;;;;;113.30;35.37;;;1.90;1.00;;;;;;5054754;28;20202;-58
2022/01/14 06:37:41;;;;;;;135.17;39.37;;;1.90;1.00;;;;;;5056522;28;20253;-58
2022/01/14 06:40:10;;;;;;;133.20;37.67;;;1.90;1.00;;;;;;5056959;28;20202;-58
2022/01/14 06:42:43;;;;;;;130.33;37.70;;;1.90;1.00;;;;;;5056257;28;20202;-59
2022/01/14 06:45:11;;;;;;;149.53;40.53;;;1.90;1.00;;;;;;5039876;28;20216;-58
2022/01/14 06:47:40;;;;;;;172.70;41.67;;;1.90;1.00;;;;;;5059366;28;20237;-58
2022/01/14 06:50:08;;;;;;;175.80;41.70;;;1.90;1.00;;;;;;5056794;28;20247;-58
2022/01/14 06:52:35;;;;;;;273.10;44.87;;;1.90;1.00;;;;;;5060378;28;20290;-59
2022/01/14 06:55:02;;;;;;;165.43;46.03;;;2.00;1.00;;;;;;5040253;28;20196;-58
2022/01/14 06:57:29;;;;;;;234.00;47.43;;;2.00;99.90;;;;;;5056935;28;20198;-58
2022/01/14 06:59:59;;;;;;;181.80;45.23;;;2.00;99.90;;;;;;5062268;28;20200;-58
2022/01/14 07:02:29;;;;;;;172.77;42.93;;;2.00;92.40;;;;;;5056851;28;20644;-58
2022/01/14 07:05:01;;;;;;;202.70;41.70;;;2.00;99.90;;;;;;5039089;28;20222;-58
2022/01/14 07:07:28;;;;;;;180.13;43.93;;;2.00;99.90;;;;;;5058228;28;20206;-58
2022/01/14 07:09:58;;;;;;;148.97;42.53;;;1.90;99.90;;;;;;5040011;28;20208;-59
2022/01/14 07:12:30;;;;;;;182.87;41.80;;;2.00;99.90;;;;;;5061863;28;20253;-58
2022/01/14 07:14:58;;;;;;;146.23;41.20;;;1.90;87.10;;;;;;5058638;28;20223;-59
2022/01/14 07:17:28;;;;;;;141.23;39.13;;;1.90;99.90;;;;;;5059354;28;20303;-59
2022/01/14 07:19:58;;;;;;;143.53;38.83;;;1.90;99.90;;;;;;5054962;28;20631;-59
2022/01/14 07:22:28;;;;;;;145.13;39.77;;;1.90;99.20;;;;;;5056731;28;20285;-59
2022/01/14 07:24:58;;;;;;;143.20;40.20;;;1.90;99.90;;;;;;5057654;28;20212;-58
2022/01/14 07:27:26;;;;;;;147.77;41.97;;;1.90;99.90;;;;;;5055213;28;20235;-59
2022/01/14 07:29:56;;;;;;;180.03;40.77;;;2.00;99.90;;;;;;5056297;28;20317;-59
2022/01/14 07:32:23;;;;;;;173.47;43.60;;;2.00;1.00;;;;;;5058766;28;21129;-59
2022/01/14 07:34:53;;;;;;;166.00;44.40;;;2.10;1.00;;;;;;5063086;28;20246;-59
2022/01/14 07:37:20;;;;;;;167.37;41.37;;;2.10;99.90;;;;;;5072020;28;20691;-58
2022/01/14 07:39:47;;;;;;;164.63;42.80;;;2.10;99.90;;;;;;5062227;28;20234;-58
2022/01/14 07:42:15;;;;;;;173.33;39.33;;;2.10;99.90;;;;;;5052324;28;20286;-59
2022/01/14 07:44:42;;;;;;;137.73;39.30;;;2.20;99.90;;;;;;5080117;28;20271;-59
2022/01/14 07:47:09;;;;;;;169.30;38.47;;;2.20;99.90;;;;;;5064797;28;20215;-59
2022/01/14 07:49:37;;;;;;;146.43;39.80;;;2.20;99.90;;;;;;5061814;28;20277;-60
2022/01/14 07:52:05;;;;;;;147.73;37.50;;;2.20;99.90;;;;;;5062219;28;20622;-60
2022/01/14 07:54:34;;;;;;;123.97;38.40;;;2.20;99.90;;;;;;5056777;28;20290;-59
2022/01/14 07:57:02;;;;;;;115.93;37.63;;;2.20;99.90;;;;;;5047581;28;20198;-60
2022/01/14 07:59:34;;;;;;;122.87;37.43;;;2.20;1.00;;;;;;5020091;28;20648;-60
2022/01/14 08:02:01;;;;;;;119.17;37.27;;;2.20;33.40;;;;;;5044007;28;20289;-59
2022/01/14 08:04:32;;;;;;;116.23;36.13;;;2.30;1.00;;;;;;5059057;28;20669;-58
2022/01/14 08:07:08;;;;;;;124.60;39.03;;;2.30;1.00;;;;;;5060692;28;20210;-59
2022/01/14 08:09:36;;;;;;;111.17;37.33;;;2.30;1.00;;;;;;5074031;28;20194;-58
2022/01/14 08:12:06;;;;;;;115.13;37.27;;;2.30;1.00;;;;;;5057527;28;20222;-58
2022/01/14 08:14:37;;;;;;;109.40;38.00;;;2.30;99.90;;;;;;5058801;28;20217;-59
2022/01/14 08:17:14;;;;;;;117.50;35.57;;;2.30;99.90;;;;;;5056547;28;20195;-59
2022/01/14 08:19:41;;;;;;;115.97;34.47;;;2.30;99.90;;;;;;5056836;28;20241;-58
2022/01/14 08:22:11;;;;;;;94.43;33.73;;;2.20;1.00;;;;;;5041143;28;20248;-59
2022/01/14 08:24:38;;;;;;;114.40;34.97;;;2.30;1.00;;;;;;5074879;28;20824;-59
2022/01/14 08:27:07;;;;;;;103.80;35.33;;;2.20;1.00;;;;;;5058498;28;20199;-59
2022/01/14 08:29:36;;;;;;;102.87;35.00;;;2.20;1.00;;;;;;5062923;28;20219;-60
2022/01/14 08:32:05;;;;;;;114.27;35.53;;;2.30;1.00;;;;;;5074790;28;21116;-59
2022/01/14 08:34:33;;;;;;;161.23;38.00;;;2.30;1.00;;;;;;5056824;28;20304;-59
2022/01/14 08:37:03;;;;;;;175.17;40.53;;;2.40;1.00;;;;;;5065491;28;20214;-59
2022/01/14 08:39:30;;;;;;;142.27;40.90;;;2.40;99.90;;;;;;5067028;28;20281;-57
2022/01/14 08:42:00;;;;;;;157.93;40.63;;;2.40;1.00;;;;;;5062943;28;20199;-59
2022/01/14 08:44:27;;;;;;;127.37;40.23;;;2.50;1.00;;;;;;5062368;28;20217;-56
2022/01/14 08:46:55;;;;;;;149.67;40.93;;;2.50;99.90;;;;;;5065246;28;20229;-59
2022/01/14 08:49:23;;;;;;;170.27;43.47;;;2.50;99.90;;;;;;5064261;28;20198;-58
2022/01/14 08:51:50;;;;;;;139.83;41.13;;;2.50;1.00;;;;;;5056205;28;20199;-57
2022/01/14 08:54:17;;;;;;;147.70;43.23;;;2.60;1.00;;;;;;5064483;28;20215;-58
2022/01/14 08:56:47;;;;;;;165.43;42.33;;;2.60;1.00;;;;;;5060901;28;20201;-59
2022/01/14 08:59:17;;;;;;;154.30;41.40;;;2.60;99.90;;;;;;5062071;28;20302;-59
2022/01/14 09:01:46;;;;;;;149.43;42.73;;;2.50;99.90;;;;;;5062458;28;20194;-59
2022/01/14 09:04:14;;;;;;;123.13;40.73;;;2.50;99.90;;;;;;5060862;28;20195;-57
2022/01/14 09:06:46;;;;;;;186.37;46.80;;;2.60;99.90;;;;;;5063158;28;21665;-58
2022/01/14 09:09:13;;;;;;;173.63;41.87;;;2.50;99.90;;;;;;5060171;28;20721;-59
2022/01/14 09:11:40;;;;;;;140.20;38.97;;;2.50;99.90;;;;;;5043972;28;20221;-59
2022/01/14 09:14:07;;;;;;;138.63;38.20;;;2.50;90.70;;;;;;5059446;28;20663;-59
2022/01/14 09:16:37;;;;;;;129.43;35.87;;;2.40;50.80;;;;;;5060298;28;20195;-59
2022/01/14 09:19:06;;;;;;;110.10;37.03;;;2.40;99.90;;;;;;5057490;28;20216;-59
2022/01/14 09:21:33;;;;;;;143.83;37.57;;;2.50;99.90;;;;;;5041691;28;20231;-59
2022/01/14 09:24:05;;;;;;;115.60;31.53;;;2.50;99.90;;;;;;5055507;28;20192;-59
2022/01/14 09:26:34;;;;;;;90.87;30.00;;;2.50;99.90;;;;;;5070341;28;21159;-59
2022/01/14 09:29:02;;;;;;;130.63;31.00;;;2.50;99.90;;;;;;5057327;28;20198;-59
2022/01/14 09:31:30;;;;;;;80.73;27.77;;;2.50;99.90;;;;;;5059494;28;20249;-59
2022/01/14 09:33:57;;;;;;;94.20;28.63;;;2.30;1.00;;;;;;5055480;28;20266;-59
2022/01/14 09:36:25;;;;;;;96.07;28.57;;;2.40;99.90;;;;;;5046193;28;20697;-59
2022/01/14 09:38:52;;;;;;;92.50;27.40;;;2.30;1.00;;;;;;5056730;28;20237;-59
2022/01/14 09:41:19;;;;;;;106.30;30.20;;;2.40;1.00;;;;;;5056992;28;20281;-60
2022/01/14 09:43:49;;;;;;;98.90;29.03;;;2.50;1.00;;;;;;5060286;28;20290;-59
2022/01/14 09:46:16;;;;;;;100.57;31.40;;;2.40;1.00;;;;;;5041120;28;20219;-59
2022/01/14 09:48:50;;;;;;;95.00;29.50;;;2.40;99.90;;;;;;5059801;28;20539;-59
2022/01/14 09:51:18;;;;;;;108.47;32.83;;;2.40;92.90;;;;;;5074790;28;20282;-59
2022/01/14 09:53:46;;;;;;;96.63;32.93;;;2.40;99.90;;;;;;5044401;28;20209;-59
2022/01/14 09:56:23;;;;;;;98.40;31.43;;;2.50;99.90;;;;;;5054955;28;20283;-59
2022/01/14 09:58:51;;;;;;;87.40;32.03;;;2.50;99.90;;;;;;5055109;28;20222;-59
2022/01/14 10:01:23;;;;;;;101.20;31.70;;;2.60;99.90;;;;;;5045837;28;20199;-59
2022/01/14 10:04:02;;;;;;;103.97;32.57;;;2.60;99.90;;;;;;5045463;28;20509;-59
2022/01/14 10:06:43;;;;;;;99.07;33.17;;;2.60;12.80;;;;;;5058847;28;20211;-59
2022/01/14 10:09:20;;;;;;;94.83;31.37;;;2.70;1.00;;;;;;5058683;28;21075;-59
2022/01/14 10:12:02;;;;;;;117.40;34.87;;;2.60;1.00;;;;;;5040837;28;20635;-59
2022/01/14 10:14:29;;;;;;;102.67;34.03;;;2.70;1.00;;;;;;5059102;28;20710;-59
2022/01/14 10:17:02;;;;;;;97.90;34.77;;;2.70;1.00;;;;;;5058864;28;20286;-59
2022/01/14 10:19:33;;;;;;;118.90;36.43;;;2.70;1.00;;;;;;5071731;28;20790;-59
2022/01/14 10:22:01;;;;;;;112.33;35.57;;;2.80;1.00;;;;;;5060909;28;20239;-60
2022/01/14 10:24:31;;;;;;;113.10;37.13;;;2.70;1.00;;;;;;5059014;28;20261;-59
2022/01/14 10:27:03;;;;;;;114.60;38.67;;;2.70;99.90;;;;;;5056107;28;20281;-59
2022/01/14 10:29:39;;;;;;;105.77;36.87;;;2.70;99.90;;;;;;5059017;28;20187;-59
2022/01/14 10:32:08;;;;;;;106.30;34.30;;;2.80;1.00;;;;;;5058114;28;20187;-59
2022/01/14 10:34:36;;;;;;;115.10;35.13;;;2.70;99.90;;;;;;5042203;28;20235;-59
2022/01/14 10:37:17;;;;;;;100.80;34.63;;;2.80;99.90;;;;;;5056967;28;20207;-59
2022/01/14 10:39:52;;;;;;;109.20;36.73;;;2.80;99.90;;;;;;5056819;28;20195;-59
2022/01/14 10:42:28;;;;;;;97.40;35.27;;;2.90;99.90;;;;;;5063285;28;20198;-59
2022/01/14 10:45:20;;;;;;;100.63;35.20;;;3.00;99.90;;;;;;5059131;28;20601;-59
2022/01/14 10:47:54;;;;;;;104.80;34.87;;;2.90;1.00;;;;;;5058811;28;20195;-59
2022/01/14 10:50:33;;;;;;;99.77;33.77;;;2.90;82.00;;;;;;5070365;28;20230;-58
2022/01/14 10:53:03;;;;;;;99.70;35.07;;;3.00;1.00;;;;;;5046451;28;20241;-60
2022/01/14 10:55:35;;;;;;;89.67;32.33;;;2.90;1.00;;;;;;5057534;28;20302;-59
2022/01/14 10:58:04;;;;;;;108.47;33.03;;;2.90;1.00;;;;;;5058185;28;20983;-59
2022/01/14 11:00:49;;;;;;;95.93;34.40;;;3.00;1.00;;;;;;5060645;28;20300;-59
2022/01/14 11:03:56;;;;;;;88.57;31.90;;;3.00;1.00;;;;;;5050383;28;20203;-58
2022/01/14 11:06:27;;;;;;;87.90;31.30;;;3.00;1.00;;;;;;5065164;28;20609;-58
2022/01/14 11:09:04;;;;;;;88.07;32.77;;;3.10;1.00;;;;;;5058675;28;20687;-58
2022/01/14 11:11:34;;;;;;;92.17;32.37;;;3.10;1.00;;;;;;5058077;28;20241;-58
2022/01/14 11:14:01;;;;;;;82.63;32.37;;;3.10;1.00;;;;;;5045008;28;20191;-58
2022/01/14 11:16:28;;;;;;;74.97;31.87;;;3.20;1.00;;;;;;5057946;28;20203;-58
2022/01/14 11:18:58;;;;;;;77.73;31.27;;;3.20;1.00;;;;;;5055345;28;20209;-59
2022/01/14 11:24:23;;;;;;;71.10;29.13;;;3.40;1.00;;;;;;5072601;28;20667;-59
2022/01/14 11:26:53;;;;;;;74.97;31.47;;;3.30;99.90;;;;;;5057981;28;20203;-59
2022/01/14 11:29:24;;;;;;;110.67;48.40;;;3.40;99.90;;;;;;5044994;28;20199;-60
2022/01/14 11:31:59;;;;;;;85.17;35.03;;;3.40;99.90;;;;;;5057108;28;20202;-59
2022/01/14 11:34:33;;;;;;;111.13;44.23;;;3.50;99.90;;;;;;5059774;28;20905;-59
2022/01/14 11:37:11;;;;;;;82.73;31.60;;;3.60;99.90;;;;;;5056462;28;21178;-60
2022/01/14 11:39:55;;;;;;;77.47;30.53;;;3.60;99.90;;;;;;5045432;28;20191;-60
2022/01/14 11:42:42;;;;;;;77.20;29.13;;;3.70;99.90;;;;;;5057847;28;20233;-59
2022/01/14 11:45:15;;;;;;;72.63;30.73;;;3.80;89.80;;;;;;5051447;28;20207;-60
2022/01/14 11:47:44;;;;;;;78.07;31.37;;;3.70;1.00;;;;;;5045830;28;20250;-58
2022/01/14 11:50:35;;;;;;;76.37;35.10;;;3.80;1.00;;;;;;5053241;28;20225;-58
2022/01/14 11:53:05;;;;;;;75.50;30.30;;;3.80;19.30;;;;;;5053984;28;20262;-59
2022/01/14 11:55:32;;;;;;;74.70;31.37;;;3.80;1.00;;;;;;5056227;28;20699;-58
2022/01/14 11:58:12;;;;;;;77.60;32.60;;;3.80;1.00;;;;;;5059834;28;20580;-58
2022/01/14 12:00:41;;;;;;;83.23;31.73;;;3.80;1.00;;;;;;5044392;28;20321;-58
2022/01/14 12:03:14;;;;;;;76.57;33.13;;;3.90;1.00;;;;;;5064289;28;20526;-60
2022/01/14 12:05:51;;;;;;;86.67;33.27;;;3.80;1.00;;;;;;5057144;28;20198;-60
2022/01/14 12:08:40;;;;;;;90.40;32.80;;;3.80;1.00;;;;;;5049162;28;20202;-60
2022/01/14 12:11:09;;;;;;;91.07;33.60;;;3.80;1.00;;;;;;5061387;28;20194;-60
2022/01/14 12:13:39;;;;;;;88.40;33.97;;;3.80;1.00;;;;;;5074811;28;20593;-60
2022/01/14 12:16:08;;;;;;;89.00;34.23;;;3.70;1.00;;;;;;5061473;28;20199;-61
2022/01/14 12:18:57;;;;;;;93.00;36.43;;;3.80;1.00;;;;;;5061804;28;20192;-60
2022/01/14 12:21:44;;;;;;;87.97;34.20;;;3.80;1.00;;;;;;5059450;28;20230;-60
2022/01/14 12:24:17;;;;;;;75.50;32.50;;;3.80;1.00;;;;;;5048039;28;20272;-60
2022/01/14 12:27:11;;;;;;;80.33;33.10;;;3.80;1.00;;;;;;5058076;28;20310;-60
2022/01/14 12:30:02;;;;;;;84.63;33.07;;;3.80;1.00;;;;;;5064064;28;20222;-60
2022/01/14 12:32:29;;;;;;;88.03;35.97;;;3.80;1.00;;;;;;5063968;28;20659;-60
2022/01/14 12:34:56;;;;;;;77.40;32.17;;;3.80;1.00;;;;;;5077599;28;20654;-60
2022/01/14 12:37:30;;;;;;;76.90;33.47;;;3.90;1.00;;;;;;5076495;28;20759;-60
2022/01/14 12:40:28;;;;;;;82.63;32.67;;;3.90;1.00;;;;;;5065593;28;20190;-57
2022/01/14 12:43:03;;;;;;;77.33;33.90;;;3.90;1.00;;;;;;5046037;28;20206;-58
2022/01/14 12:45:51;;;;;;;74.13;31.47;;;4.00;1.00;;;;;;5079092;28;20264;-58
2022/01/14 12:48:39;;;;;;;70.13;31.27;;;4.00;1.00;;;;;;5063514;28;20290;-61
2022/01/14 12:51:13;;;;;;;70.13;33.50;;;4.00;1.00;;;;;;5077646;28;20210;-61
2022/01/14 12:53:50;;;;;;;83.00;41.53;;;4.00;1.00;;;;;;5061745;28;20716;-61
2022/01/14 12:56:20;;;;;;;71.67;33.13;;;3.90;1.00;;;;;;5081406;28;20300;-60
2022/01/14 12:58:59;;;;;;;75.70;34.70;;;4.00;1.00;;;;;;5081308;28;20197;-60
2022/01/14 13:01:39;;;;;;;72.67;34.80;;;4.00;1.00;;;;;;5051338;28;20207;-59
2022/01/14 13:04:11;;;;;;;75.27;36.37;;;4.10;1.00;;;;;;5083501;28;20223;-59
2022/01/14 13:06:48;;;;;;;72.17;35.13;;;4.10;1.00;;;;;;5067223;28;20233;-60
2022/01/14 13:09:20;;;;;;;67.73;33.47;;;4.10;1.00;;;;;;5067669;28;20534;-58
2022/01/14 13:11:55;;;;;;;66.87;31.30;;;4.20;1.00;;;;;;5079932;28;20218;-57
2022/01/14 13:14:46;;;;;;;78.33;32.80;;;4.30;1.00;;;;;;5060556;28;20198;-58
2022/01/14 13:17:26;;;;;;;60.27;30.03;;;4.30;1.00;;;;;;5079213;28;20657;-58
2022/01/14 13:20:02;;;;;;;63.47;30.17;;;4.30;1.00;;;;;;5062022;28;21101;-58